sensor_id;sensor_type;location;lat;lon;timestamp;temperature;humidity
46340;DHT22;47273;49.274;8.708;2022-09-09T03:32:34;16.60;99.90
46340;DHT22;47273;49.274;8.708;2022-09-09T03:34:59;16.60;99.90
46340;DHT22;47273;49.274;8.708;2022-09-09T03:37:25;16.60;99.90
46340;DHT22;47273;49.274;8.708;2022-09-09T03:39:51;16.60;99.90
46340;DHT22;47273;49.274;8.708;2022-09-09T03:42:19;16.50;99.90
46340;DHT22;47273;49.274;8.708;2022-09-09T03:44:46;16.50;99.90
46340;DHT22;47273;49.274;8.708;2022-09-09T03:47:19;16.50;99.90
46340;DHT22;47273;49.274;8.708;2022-09-09T03:49:47;16.50;99.90
46340;DHT22;47273;49.274;8.708;2022-09-09T03:52:14;16.50;99.90
46340;DHT22;47273;49.274;8.708;2022-09-09T03:54:40;16.50;99.90
46340;DHT22;47273;49.274;8.708;2022-09-09T03:57:08;16.50;99.90
46340;DHT22;47273;49.274;8.708;2022-09-09T03:59:37;16.50;99.90
46340;DHT22;47273;49.274;8.708;2022-09-09T04:02:09;16.50;99.90
46340;DHT22;47273;49.274;8.708;2022-09-09T04:04:35;16.40;99.90
46340;DHT22;47273;49.274;8.708;2022-09-09T04:07:03;16.50;99.90
46340;DHT22;47273;49.274;8.708;2022-09-09T04:09:32;16.40;99.90
46340;DHT22;47273;49.274;8.708;2022-09-09T04:11:59;16.50;99.90
46340;DHT22;47273;49.274;8.708;2022-09-09T04:14:24;16.50;99.90
46340;DHT22;47273;49.274;8.708;2022-09-09T04:16:53;16.50;99.90
46340;DHT22;47273;49.274;8.708;2022-09-09T04:19:18;16.60;99.90
46340;DHT22;47273;49.274;8.708;2022-09-09T04:21:44;16.60;99.90
46340;DHT22;47273;49.274;8.708;2022-09-09T04:24:10;16.60;99.90
46340;DHT22;47273;49.274;8.708;2022-09-09T04:26:36;16.50;99.90
46340;DHT22;47273;49.274;8.708;2022-09-09T04:29:03;16.60;99.90
46340;DHT22;47273;49.274;8.708;2022-09-09T04:31:29;16.60;99.90
46340;DHT22;47273;49.274;8.708;2022-09-09T04:33:57;16.50;99.90
46340;DHT22;47273;49.274;8.708;2022-09-09T04:36:23;16.50;99.90
46340;DHT22;47273;49.274;8.708;2022-09-09T04:38:48;16.60;99.90
46340;DHT22;47273;49.274;8.708;2022-09-09T04:41:15;16.60;99.90
46340;DHT22;47273;49.274;8.708;2022-09-09T04:43:42;16.60;99.90
46340;DHT22;47273;49.274;8.708;2022-09-09T04:46:08;16.60;99.90
46340;DHT22;47273;49.274;8.708;2022-09-09T04:48:33;16.50;99.90
46340;DHT22;47273;49.274;8.708;2022-09-09T04:51:01;16.60;99.90
46340;DHT22;47273;49.274;8.708;2022-09-09T04:53:27;16.60;99.90
46340;DHT22;47273;49.274;8.708;2022-09-09T04:56:03;16.60;99.90
46340;DHT22;47273;49.274;8.708;2022-09-09T04:58:30;16.60;99.90
46340;DHT22;47273;49.274;8.708;2022-09-09T05:01:12;16.60;99.90
46340;DHT22;47273;49.274;8.708;2022-09-09T05:03:38;16.50;99.90
46340;DHT22;47273;49.274;8.708;2022-09-09T05:08:30;16.40;99.90
46340;DHT22;47273;49.274;8.708;2022-09-09T05:10:55;16.40;99.90
46340;DHT22;47273;49.274;8.708;2022-09-09T05:13:21;16.50;99.90
46340;DHT22;47273;49.274;8.708;2022-09-09T05:15:54;16.50;99.90
46340;DHT22;47273;49.274;8.708;2022-09-09T05:18:20;16.60;99.90
46340;DHT22;47273;49.274;8.708;2022-09-09T05:20:50;16.50;99.90
46340;DHT22;47273;49.274;8.708;2022-09-09T05:23:16;16.50;99.90
46340;DHT22;47273;49.274;8.708;2022-09-09T05:25:42;16.60;99.90
46340;DHT22;47273;49.274;8.708;2022-09-09T05:28:08;16.70;99.90
46340;DHT22;47273;49.274;8.708;2022-09-09T05:30:34;16.70;99.90
46340;DHT22;47273;49.274;8.708;2022-09-09T05:33:00;16.70;99.90
46340;DHT22;47273;49.274;8.708;2022-09-09T05:35:26;16.70;99.90
46340;DHT22;47273;49.274;8.708;2022-09-09T05:37:51;16.80;99.90
46340;DHT22;47273;49.274;8.708;2022-09-09T05:40:20;16.80;99.90
46340;DHT22;47273;49.274;8.708;2022-09-09T05:42:46;16.90;99.90
46340;DHT22;47273;49.274;8.708;2022-09-09T05:45:12;16.90;99.90
46340;DHT22;47273;49.274;8.708;2022-09-09T05:47:38;16.90;99.90
46340;DHT22;47273;49.274;8.708;2022-09-09T05:50:04;17.00;99.90
46340;DHT22;47273;49.274;8.708;2022-09-09T05:52:30;17.10;99.90
46340;DHT22;47273;49.274;8.708;2022-09-09T05:54:55;17.20;99.90
46340;DHT22;47273;49.274;8.708;2022-09-09T05:57:22;17.20;99.90
46340;DHT22;47273;49.274;8.708;2022-09-09T05:59:48;17.20;99.90
46340;DHT22;47273;49.274;8.708;2022-09-09T06:02:13;17.30;99.90
46340;DHT22;47273;49.274;8.708;2022-09-09T06:04:39;17.30;99.90
46340;DHT22;47273;49.274;8.708;2022-09-09T06:07:05;17.30;99.90
46340;DHT22;47273;49.274;8.708;2022-09-09T06:09:31;17.30;99.90
46340;DHT22;47273;49.274;8.708;2022-09-09T06:12:00;17.40;99.90
46340;DHT22;47273;49.274;8.708;2022-09-09T06:14:25;17.40;99.90
46340;DHT22;47273;49.274;8.708;2022-09-09T06:16:52;17.40;99.90
46340;DHT22;47273;49.274;8.708;2022-09-09T06:19:18;17.40;99.90
46340;DHT22;47273;49.274;8.708;2022-09-09T06:21:45;17.40;99.90
46340;DHT22;47273;49.274;8.708;2022-09-09T06:24:13;17.50;99.90
46340;DHT22;47273;49.274;8.708;2022-09-09T06:26:42;17.50;99.90
46340;DHT22;47273;49.274;8.708;2022-09-09T06:29:08;17.70;99.90
46340;DHT22;47273;49.274;8.708;2022-09-09T06:31:35;17.80;99.90
46340;DHT22;47273;49.274;8.708;2022-09-09T06:34:04;17.80;99.90
46340;DHT22;47273;49.274;8.708;2022-09-09T06:36:32;17.90;99.90
46340;DHT22;47273;49.274;8.708;2022-09-09T06:38:59;17.90;99.90
46340;DHT22;47273;49.274;8.708;2022-09-09T06:41:27;17.90;99.90
46340;DHT22;47273;49.274;8.708;2022-09-09T06:43:56;18.00;99.90
46340;DHT22;47273;49.274;8.708;2022-09-09T06:46:24;18.10;99.90
46340;DHT22;47273;49.274;8.708;2022-09-09T06:48:53;18.10;99.90
46340;DHT22;47273;49.274;8.708;2022-09-09T06:51:28;18.10;99.90
46340;DHT22;47273;49.274;8.708;2022-09-09T06:53:56;18.10;99.90
46340;DHT22;47273;49.274;8.708;2022-09-09T06:56:24;18.20;99.90
46340;DHT22;47273;49.274;8.708;2022-09-09T06:58:51;18.30;99.90
46340;DHT22;47273;49.274;8.708;2022-09-09T07:01:23;18.30;99.90
46340;DHT22;47273;49.274;8.708;2022-09-09T07:03:52;18.40;99.90
46340;DHT22;47273;49.274;8.708;2022-09-09T07:06:28;18.40;99.90
46340;DHT22;47273;49.274;8.708;2022-09-09T07:08:56;18.50;99.90
46340;DHT22;47273;49.274;8.708;2022-09-09T07:11:26;18.50;99.90
46340;DHT22;47273;49.274;8.708;2022-09-09T07:13:52;18.50;99.90
46340;DHT22;47273;49.274;8.708;2022-09-09T07:16:20;18.50;99.90
46340;DHT22;47273;49.274;8.708;2022-09-09T07:18:48;18.60;99.90
46340;DHT22;47273;49.274;8.708;2022-09-09T07:21:18;18.60;99.90
46340;DHT22;47273;49.274;8.708;2022-09-09T07:23:44;18.80;99.90
46340;DHT22;47273;49.274;8.708;2022-09-09T07:26:16;18.90;99.90
46340;DHT22;47273;49.274;8.708;2022-09-09T07:28:42;19.10;99.90
46340;DHT22;47273;49.274;8.708;2022-09-09T07:31:20;19.20;99.90
46340;DHT22;47273;49.274;8.708;2022-09-09T07:33:47;19.30;99.90
46340;DHT22;47273;49.274;8.708;2022-09-09T07:36:22;19.50;99.90
46340;DHT22;47273;49.274;8.708;2022-09-09T07:38:50;19.50;99.90
46340;DHT22;47273;49.274;8.708;2022-09-09T07:41:41;19.60;99.80
46340;DHT22;47273;49.274;8.708;2022-09-09T07:44:09;19.70;99.60
46340;DHT22;47273;49.274;8.708;2022-09-09T07:46:37;19.70;98.80
46340;DHT22;47273;49.274;8.708;2022-09-09T07:49:08;19.80;98.00
46340;DHT22;47273;49.274;8.708;2022-09-09T07:51:36;19.90;97.20
46340;DHT22;47273;49.274;8.708;2022-09-09T07:54:05;20.10;96.80
46340;DHT22;47273;49.274;8.708;2022-09-09T07:56:31;20.10;96.80
46340;DHT22;47273;49.274;8.708;2022-09-09T07:59:00;20.20;95.90
46340;DHT22;47273;49.274;8.708;2022-09-09T08:01:32;20.30;96.00
46340;DHT22;47273;49.274;8.708;2022-09-09T08:04:08;20.40;95.90
46340;DHT22;47273;49.274;8.708;2022-09-09T08:06:38;20.40;95.50
46340;DHT22;47273;49.274;8.708;2022-09-09T08:09:08;20.50;93.80
46340;DHT22;47273;49.274;8.708;2022-09-09T08:11:47;20.50;94.10
46340;DHT22;47273;49.274;8.708;2022-09-09T08:14:13;20.60;94.20
46340;DHT22;47273;49.274;8.708;2022-09-09T08:16:43;20.50;92.90
46340;DHT22;47273;49.274;8.708;2022-09-09T08:19:09;20.60;93.60
46340;DHT22;47273;49.274;8.708;2022-09-09T08:21:36;20.70;93.30
46340;DHT22;47273;49.274;8.708;2022-09-09T08:24:07;20.70;92.50
46340;DHT22;47273;49.274;8.708;2022-09-09T08:26:36;20.70;92.20
46340;DHT22;47273;49.274;8.708;2022-09-09T08:29:06;20.80;91.90
46340;DHT22;47273;49.274;8.708;2022-09-09T08:31:40;20.90;91.60
46340;DHT22;47273;49.274;8.708;2022-09-09T08:34:06;21.10;91.60
46340;DHT22;47273;49.274;8.708;2022-09-09T08:36:43;21.20;90.60
46340;DHT22;47273;49.274;8.708;2022-09-09T08:39:19;21.10;90.60
46340;DHT22;47273;49.274;8.708;2022-09-09T08:52:00;20.30;96.40
46340;DHT22;47273;49.274;8.708;2022-09-09T08:54:33;20.00;98.20
46340;DHT22;47273;49.274;8.708;2022-09-09T08:57:11;19.90;99.00
46340;DHT22;47273;49.274;8.708;2022-09-09T08:59:43;19.80;99.90
46340;DHT22;47273;49.274;8.708;2022-09-09T09:06:06;19.90;99.90
46340;DHT22;47273;49.274;8.708;2022-09-09T09:09:51;20.20;99.90
46340;DHT22;47273;49.274;8.708;2022-09-09T09:11:55;20.30;99.20
46340;DHT22;47273;49.274;8.708;2022-09-09T09:14:28;20.20;99.90
46340;DHT22;47273;49.274;8.708;2022-09-09T09:17:05;20.40;99.90
46340;DHT22;47273;49.274;8.708;2022-09-09T09:19:33;20.50;99.90
46340;DHT22;47273;49.274;8.708;2022-09-09T09:22:19;20.40;99.90
46340;DHT22;47273;49.274;8.708;2022-09-09T09:25:00;20.50;99.90
46340;DHT22;47273;49.274;8.708;2022-09-09T09:27:34;20.70;99.90
46340;DHT22;47273;49.274;8.708;2022-09-09T09:30:23;20.90;97.70
46340;DHT22;47273;49.274;8.708;2022-09-09T09:33:02;20.90;95.90
46340;DHT22;47273;49.274;8.708;2022-09-09T09:35:30;21.10;96.30
46340;DHT22;47273;49.274;8.708;2022-09-09T09:37:55;21.30;95.70
46340;DHT22;47273;49.274;8.708;2022-09-09T09:40:22;21.50;95.00
46340;DHT22;47273;49.274;8.708;2022-09-09T09:42:54;21.60;94.20
46340;DHT22;47273;49.274;8.708;2022-09-09T09:45:28;21.80;93.90
46340;DHT22;47273;49.274;8.708;2022-09-09T09:48:03;22.00;94.30
46340;DHT22;47273;49.274;8.708;2022-09-09T09:50:30;22.00;93.90
46340;DHT22;47273;49.274;8.708;2022-09-09T09:53:03;21.80;93.20
46340;DHT22;47273;49.274;8.708;2022-09-09T09:55:44;21.80;93.10
46340;DHT22;47273;49.274;8.708;2022-09-09T09:58:15;21.90;93.10
46340;DHT22;47273;49.274;8.708;2022-09-09T10:00:49;22.20;92.30
46340;DHT22;47273;49.274;8.708;2022-09-09T10:03:49;22.20;91.40
46340;DHT22;47273;49.274;8.708;2022-09-09T10:06:07;22.00;87.70
46340;DHT22;47273;49.274;8.708;2022-09-09T10:08:43;21.80;90.00
46340;DHT22;47273;49.274;8.708;2022-09-09T10:11:30;21.80;88.80
46340;DHT22;47273;49.274;8.708;2022-09-09T10:17:00;22.40;89.80
46340;DHT22;47273;49.274;8.708;2022-09-09T10:24:57;22.20;87.80
46340;DHT22;47273;49.274;8.708;2022-09-09T10:30:21;22.10;89.70
46340;DHT22;47273;49.274;8.708;2022-09-09T10:35:46;21.90;89.30
46340;DHT22;47273;49.274;8.708;2022-09-09T10:38:29;21.90;90.20
46340;DHT22;47273;49.274;8.708;2022-09-09T10:41:26;21.90;87.80
46340;DHT22;47273;49.274;8.708;2022-09-09T10:55:40;22.90;80.40
46340;DHT22;47273;49.274;8.708;2022-09-09T10:58:14;23.10;84.20
46340;DHT22;47273;49.274;8.708;2022-09-09T11:00:53;23.40;82.00
46340;DHT22;47273;49.274;8.708;2022-09-09T11:03:23;23.60;78.70
46340;DHT22;47273;49.274;8.708;2022-09-09T11:05:55;23.80;79.00
46340;DHT22;47273;49.274;8.708;2022-09-09T11:08:25;24.10;77.40
46340;DHT22;47273;49.274;8.708;2022-09-09T11:11:04;24.40;76.70
46340;DHT22;47273;49.274;8.708;2022-09-09T11:21:49;25.00;73.30
46340;DHT22;47273;49.274;8.708;2022-09-09T11:24:31;24.70;72.70
46340;DHT22;47273;49.274;8.708;2022-09-09T11:27:30;24.70;72.30
46340;DHT22;47273;49.274;8.708;2022-09-09T11:32:47;25.20;71.70
46340;DHT22;47273;49.274;8.708;2022-09-09T11:38:51;25.60;71.00
46340;DHT22;47273;49.274;8.708;2022-09-09T11:41:33;25.70;71.10
46340;DHT22;47273;49.274;8.708;2022-09-09T11:44:10;25.60;68.80
46340;DHT22;47273;49.274;8.708;2022-09-09T11:46:39;25.70;68.70
46340;DHT22;47273;49.274;8.708;2022-09-09T11:49:21;25.80;68.50
46340;DHT22;47273;49.274;8.708;2022-09-09T11:51:51;26.50;67.60
46340;DHT22;47273;49.274;8.708;2022-09-09T11:54:34;26.30;66.20
46340;DHT22;47273;49.274;8.708;2022-09-09T11:57:45;26.60;67.00
46340;DHT22;47273;49.274;8.708;2022-09-09T12:00:35;26.10;64.50
46340;DHT22;47273;49.274;8.708;2022-09-09T12:03:06;26.00;64.80
46340;DHT22;47273;49.274;8.708;2022-09-09T12:06:19;26.60;64.90
46340;DHT22;47273;49.274;8.708;2022-09-09T12:08:57;27.00;62.00
46340;DHT22;47273;49.274;8.708;2022-09-09T12:11:45;27.00;62.50
46340;DHT22;47273;49.274;8.708;2022-09-09T12:14:42;26.80;61.60
46340;DHT22;47273;49.274;8.708;2022-09-09T12:17:22;26.60;61.20
46340;DHT22;47273;49.274;8.708;2022-09-09T12:20:11;26.00;58.30
46340;DHT22;47273;49.274;8.708;2022-09-09T12:22:41;25.90;61.50
46340;DHT22;47273;49.274;8.708;2022-09-09T12:28:22;25.50;59.50
46340;DHT22;47273;49.274;8.708;2022-09-09T12:31:52;25.50;61.80
46340;DHT22;47273;49.274;8.708;2022-09-09T12:34:38;24.40;59.70
46340;DHT22;47273;49.274;8.708;2022-09-09T12:39:51;24.10;63.90
46340;DHT22;47273;49.274;8.708;2022-09-09T12:42:23;23.90;64.80
46340;DHT22;47273;49.274;8.708;2022-09-09T12:47:19;23.50;67.90
46340;DHT22;47273;49.274;8.708;2022-09-09T12:49:47;23.30;69.00
46340;DHT22;47273;49.274;8.708;2022-09-09T12:52:35;23.10;69.20
46340;DHT22;47273;49.274;8.708;2022-09-09T12:55:05;22.80;69.90
46340;DHT22;47273;49.274;8.708;2022-09-09T12:57:36;22.60;70.20
46340;DHT22;47273;49.274;8.708;2022-09-09T13:00:15;22.60;71.20
46340;DHT22;47273;49.274;8.708;2022-09-09T13:02:56;22.50;71.60
46340;DHT22;47273;49.274;8.708;2022-09-09T13:05:39;22.50;72.60
46340;DHT22;47273;49.274;8.708;2022-09-09T13:08:09;22.10;72.20
46340;DHT22;47273;49.274;8.708;2022-09-09T13:10:46;21.90;71.50
46340;DHT22;47273;49.274;8.708;2022-09-09T13:13:25;21.70;72.80
46340;DHT22;47273;49.274;8.708;2022-09-09T13:15:54;21.50;70.70
46340;DHT22;47273;49.274;8.708;2022-09-09T13:18:23;21.10;72.10
46340;DHT22;47273;49.274;8.708;2022-09-09T13:20:50;21.00;74.10
46340;DHT22;47273;49.274;8.708;2022-09-09T13:23:19;21.10;75.20
46340;DHT22;47273;49.274;8.708;2022-09-09T13:26:03;21.00;76.10
46340;DHT22;47273;49.274;8.708;2022-09-09T13:28:30;20.90;77.30
46340;DHT22;47273;49.274;8.708;2022-09-09T13:31:05;20.80;79.50
46340;DHT22;47273;49.274;8.708;2022-09-09T13:33:38;20.60;81.70
46340;DHT22;47273;49.274;8.708;2022-09-09T13:36:14;20.30;81.40
46340;DHT22;47273;49.274;8.708;2022-09-09T13:41:42;19.90;85.20
46340;DHT22;47273;49.274;8.708;2022-09-09T13:44:30;19.70;88.90
46340;DHT22;47273;49.274;8.708;2022-09-09T13:47:21;19.60;87.80
46340;DHT22;47273;49.274;8.708;2022-09-09T13:49:51;19.60;90.20
46340;DHT22;47273;49.274;8.708;2022-09-09T13:52:31;19.60;90.00
46340;DHT22;47273;49.274;8.708;2022-09-09T13:54:57;19.60;90.40
46340;DHT22;47273;49.274;8.708;2022-09-09T13:57:24;19.80;91.10
46340;DHT22;47273;49.274;8.708;2022-09-09T13:59:52;20.00;91.10
46340;DHT22;47273;49.274;8.708;2022-09-09T14:02:18;19.90;90.80
46340;DHT22;47273;49.274;8.708;2022-09-09T14:04:44;20.10;92.00
46340;DHT22;47273;49.274;8.708;2022-09-09T14:07:15;20.30;92.20
46340;DHT22;47273;49.274;8.708;2022-09-09T14:09:41;21.00;90.80
46340;DHT22;47273;49.274;8.708;2022-09-09T14:12:13;22.00;88.40
46340;DHT22;47273;49.274;8.708;2022-09-09T14:14:42;22.60;84.30
46340;DHT22;47273;49.274;8.708;2022-09-09T14:17:08;22.80;82.40
46340;DHT22;47273;49.274;8.708;2022-09-09T14:19:34;22.60;78.40
46340;DHT22;47273;49.274;8.708;2022-09-09T14:22:03;23.10;78.40
46340;DHT22;47273;49.274;8.708;2022-09-09T14:24:31;23.20;80.00
46340;DHT22;47273;49.274;8.708;2022-09-09T14:27:01;23.10;78.60
46340;DHT22;47273;49.274;8.708;2022-09-09T14:29:29;23.10;77.60
46340;DHT22;47273;49.274;8.708;2022-09-09T14:31:55;23.30;79.40
46340;DHT22;47273;49.274;8.708;2022-09-09T14:34:21;23.20;77.20
46340;DHT22;47273;49.274;8.708;2022-09-09T14:36:46;23.40;77.30
46340;DHT22;47273;49.274;8.708;2022-09-09T14:39:12;22.90;75.00
46340;DHT22;47273;49.274;8.708;2022-09-09T14:41:38;22.80;75.10
46340;DHT22;47273;49.274;8.708;2022-09-09T14:44:07;22.90;75.80
46340;DHT22;47273;49.274;8.708;2022-09-09T14:46:34;22.80;75.20
46340;DHT22;47273;49.274;8.708;2022-09-09T14:49:02;22.50;74.10
46340;DHT22;47273;49.274;8.708;2022-09-09T14:51:29;22.70;76.50
46340;DHT22;47273;49.274;8.708;2022-09-09T14:53:59;22.80;76.00
46340;DHT22;47273;49.274;8.708;2022-09-09T14:56:31;22.90;77.20
46340;DHT22;47273;49.274;8.708;2022-09-09T14:58:58;22.90;76.40
46340;DHT22;47273;49.274;8.708;2022-09-09T15:01:24;22.70;76.70
46340;DHT22;47273;49.274;8.708;2022-09-09T15:04:00;22.00;77.20
46340;DHT22;47273;49.274;8.708;2022-09-09T15:06:29;22.10;78.40
46340;DHT22;47273;49.274;8.708;2022-09-09T15:08:56;22.20;79.90
46340;DHT22;47273;49.274;8.708;2022-09-09T15:11:27;22.10;79.90
46340;DHT22;47273;49.274;8.708;2022-09-09T15:14:02;22.00;80.10
46340;DHT22;47273;49.274;8.708;2022-09-09T15:16:28;22.00;80.60
46340;DHT22;47273;49.274;8.708;2022-09-09T15:18:56;21.90;81.70
46340;DHT22;47273;49.274;8.708;2022-09-09T15:21:24;21.80;80.90
46340;DHT22;47273;49.274;8.708;2022-09-09T15:23:50;21.70;81.00
46340;DHT22;47273;49.274;8.708;2022-09-09T15:26:17;21.40;81.30
46340;DHT22;47273;49.274;8.708;2022-09-09T15:28:45;21.20;83.00
46340;DHT22;47273;49.274;8.708;2022-09-09T15:33:49;21.20;82.30
46340;DHT22;47273;49.274;8.708;2022-09-09T15:36:20;21.20;82.40
46340;DHT22;47273;49.274;8.708;2022-09-09T15:38:47;21.10;83.60
46340;DHT22;47273;49.274;8.708;2022-09-09T15:41:13;21.00;84.30
46340;DHT22;47273;49.274;8.708;2022-09-09T15:43:43;20.90;86.60
46340;DHT22;47273;49.274;8.708;2022-09-09T15:48:54;20.50;85.30
46340;DHT22;47273;49.274;8.708;2022-09-09T15:51:25;20.70;86.20
46340;DHT22;47273;49.274;8.708;2022-09-09T15:53:55;21.00;83.90
46340;DHT22;47273;49.274;8.708;2022-09-09T15:56:29;21.40;80.80
46340;DHT22;47273;49.274;8.708;2022-09-09T15:59:40;21.50;82.00
46340;DHT22;47273;49.274;8.708;2022-09-09T16:02:48;21.20;82.30
46340;DHT22;47273;49.274;8.708;2022-09-09T16:05:21;21.20;84.70
46340;DHT22;47273;49.274;8.708;2022-09-09T16:07:46;21.20;84.20
46340;DHT22;47273;49.274;8.708;2022-09-09T16:10:13;21.20;84.50
46340;DHT22;47273;49.274;8.708;2022-09-09T16:12:39;21.30;84.60
46340;DHT22;47273;49.274;8.708;2022-09-09T16:15:05;21.30;84.30
46340;DHT22;47273;49.274;8.708;2022-09-09T16:17:31;21.30;85.10
46340;DHT22;47273;49.274;8.708;2022-09-09T16:20:03;21.20;86.00
46340;DHT22;47273;49.274;8.708;2022-09-09T16:22:30;21.10;86.20
46340;DHT22;47273;49.274;8.708;2022-09-09T16:24:56;20.90;86.20
46340;DHT22;47273;49.274;8.708;2022-09-09T16:27:25;20.80;87.70
46340;DHT22;47273;49.274;8.708;2022-09-09T16:29:50;20.70;87.70
46340;DHT22;47273;49.274;8.708;2022-09-09T16:32:16;20.80;87.90
46340;DHT22;47273;49.274;8.708;2022-09-09T16:34:42;20.70;88.50
46340;DHT22;47273;49.274;8.708;2022-09-09T16:37:08;20.70;88.70
46340;DHT22;47273;49.274;8.708;2022-09-09T16:39:34;20.70;88.40
46340;DHT22;47273;49.274;8.708;2022-09-09T16:41:59;20.60;88.70
46340;DHT22;47273;49.274;8.708;2022-09-09T16:44:25;20.60;89.80
46340;DHT22;47273;49.274;8.708;2022-09-09T16:46:51;20.10;89.70
46340;DHT22;47273;49.274;8.708;2022-09-09T16:49:20;19.90;91.00
46340;DHT22;47273;49.274;8.708;2022-09-09T16:51:47;19.80;90.90
46340;DHT22;47273;49.274;8.708;2022-09-09T16:54:15;19.90;90.90
46340;DHT22;47273;49.274;8.708;2022-09-09T16:56:43;19.90;91.00
46340;DHT22;47273;49.274;8.708;2022-09-09T16:59:18;19.80;91.10
46340;DHT22;47273;49.274;8.708;2022-09-09T17:01:48;19.70;91.30
46340;DHT22;47273;49.274;8.708;2022-09-09T17:04:19;19.70;91.70
46340;DHT22;47273;49.274;8.708;2022-09-09T17:06:50;19.60;92.10
46340;DHT22;47273;49.274;8.708;2022-09-09T17:09:18;19.30;93.00
46340;DHT22;47273;49.274;8.708;2022-09-09T17:11:44;19.20;93.80
46340;DHT22;47273;49.274;8.708;2022-09-09T17:14:14;19.30;94.00
46340;DHT22;47273;49.274;8.708;2022-09-09T17:16:43;19.40;94.50
46340;DHT22;47273;49.274;8.708;2022-09-09T17:19:09;18.80;95.10
46340;DHT22;47273;49.274;8.708;2022-09-09T17:21:38;19.00;96.80
46340;DHT22;47273;49.274;8.708;2022-09-09T17:24:04;18.40;99.90
46340;DHT22;47273;49.274;8.708;2022-09-09T17:26:31;18.50;99.90
46340;DHT22;47273;49.274;8.708;2022-09-09T17:28:59;18.20;99.90
46340;DHT22;47273;49.274;8.708;2022-09-09T17:31:26;18.30;99.90
46340;DHT22;47273;49.274;8.708;2022-09-09T17:34:02;18.10;99.90
46340;DHT22;47273;49.274;8.708;2022-09-09T17:36:34;18.10;99.90
46340;DHT22;47273;49.274;8.708;2022-09-09T17:39:03;18.00;99.90
46340;DHT22;47273;49.274;8.708;2022-09-09T17:41:37;18.00;99.90
46340;DHT22;47273;49.274;8.708;2022-09-09T17:44:05;17.80;99.90
46340;DHT22;47273;49.274;8.708;2022-09-09T17:46:40;17.80;99.90
46340;DHT22;47273;49.274;8.708;2022-09-09T17:49:12;17.60;99.90
46340;DHT22;47273;49.274;8.708;2022-09-09T17:51:39;17.60;99.90
46340;DHT22;47273;49.274;8.708;2022-09-09T17:54:18;17.60;99.90
46340;DHT22;47273;49.274;8.708;2022-09-09T17:56:45;17.60;99.90
46340;DHT22;47273;49.274;8.708;2022-09-09T17:59:13;17.50;99.90
46340;DHT22;47273;49.274;8.708;2022-09-09T18:01:42;17.40;99.90
46340;DHT22;47273;49.274;8.708;2022-09-09T18:04:13;17.50;99.90
46340;DHT22;47273;49.274;8.708;2022-09-09T18:06:47;17.40;99.90
46340;DHT22;47273;49.274;8.708;2022-09-09T18:09:16;17.40;99.90
46340;DHT22;47273;49.274;8.708;2022-09-09T18:11:45;17.40;99.90
46340;DHT22;47273;49.274;8.708;2022-09-09T18:14:24;17.20;99.90
46340;DHT22;47273;49.274;8.708;2022-09-09T18:16:50;17.10;99.90
46340;DHT22;47273;49.274;8.708;2022-09-09T18:19:19;17.20;99.90
46340;DHT22;47273;49.274;8.708;2022-09-09T18:21:46;17.10;99.90
46340;DHT22;47273;49.274;8.708;2022-09-09T18:24:14;17.00;99.90
46340;DHT22;47273;49.274;8.708;2022-09-09T18:26:42;16.90;99.90
46340;DHT22;47273;49.274;8.708;2022-09-09T18:29:11;17.00;99.90
46340;DHT22;47273;49.274;8.708;2022-09-09T18:31:37;17.00;99.90
46340;DHT22;47273;49.274;8.708;2022-09-09T18:34:05;17.00;99.90
46340;DHT22;47273;49.274;8.708;2022-09-09T18:36:37;16.90;99.90
46340;DHT22;47273;49.274;8.708;2022-09-09T18:39:04;17.00;99.90
46340;DHT22;47273;49.274;8.708;2022-09-09T18:41:38;17.00;99.90
46340;DHT22;47273;49.274;8.708;2022-09-09T18:44:13;17.00;99.90
46340;DHT22;47273;49.274;8.708;2022-09-09T18:46:41;17.00;99.90
46340;DHT22;47273;49.274;8.708;2022-09-09T18:49:07;17.10;99.90
46340;DHT22;47273;49.274;8.708;2022-09-09T18:51:33;17.20;99.90
46340;DHT22;47273;49.274;8.708;2022-09-09T18:54:05;17.30;99.90
46340;DHT22;47273;49.274;8.708;2022-09-09T18:56:32;17.30;99.90
46340;DHT22;47273;49.274;8.708;2022-09-09T18:59:00;17.30;99.90
46340;DHT22;47273;49.274;8.708;2022-09-09T19:01:27;17.30;99.90
46340;DHT22;47273;49.274;8.708;2022-09-09T19:03:53;17.20;99.90
46340;DHT22;47273;49.274;8.708;2022-09-09T19:06:23;17.20;99.90
46340;DHT22;47273;49.274;8.708;2022-09-09T19:08:49;17.20;99.90
46340;DHT22;47273;49.274;8.708;2022-09-09T19:11:18;17.20;99.90
46340;DHT22;47273;49.274;8.708;2022-09-09T19:13:48;17.10;99.90
46340;DHT22;47273;49.274;8.708;2022-09-09T19:16:15;17.10;99.90
46340;DHT22;47273;49.274;8.708;2022-09-09T19:18:42;17.10;99.90
46340;DHT22;47273;49.274;8.708;2022-09-09T19:21:19;17.10;99.90
46340;DHT22;47273;49.274;8.708;2022-09-09T19:24:06;17.00;99.90
46340;DHT22;47273;49.274;8.708;2022-09-09T19:26:35;17.00;99.90
46340;DHT22;47273;49.274;8.708;2022-09-09T19:29:12;17.00;99.90
46340;DHT22;47273;49.274;8.708;2022-09-09T19:31:42;17.00;99.90
46340;DHT22;47273;49.274;8.708;2022-09-09T19:34:11;16.80;99.90
46340;DHT22;47273;49.274;8.708;2022-09-09T19:36:38;16.80;99.90
46340;DHT22;47273;49.274;8.708;2022-09-09T19:39:06;16.90;99.90
46340;DHT22;47273;49.274;8.708;2022-09-09T19:41:32;16.90;99.90
46340;DHT22;47273;49.274;8.708;2022-09-09T19:44:00;16.70;99.90
46340;DHT22;47273;49.274;8.708;2022-09-09T19:46:32;16.80;99.90
46340;DHT22;47273;49.274;8.708;2022-09-09T19:48:58;16.70;99.90
46340;DHT22;47273;49.274;8.708;2022-09-09T19:51:26;16.70;99.90
46340;DHT22;47273;49.274;8.708;2022-09-09T19:53:59;16.70;99.90
46340;DHT22;47273;49.274;8.708;2022-09-09T19:56:28;16.70;99.90
46340;DHT22;47273;49.274;8.708;2022-09-09T19:58:54;16.70;99.90
46340;DHT22;47273;49.274;8.708;2022-09-09T20:01:23;16.70;99.90
46340;DHT22;47273;49.274;8.708;2022-09-09T20:03:51;16.70;99.90
46340;DHT22;47273;49.274;8.708;2022-09-09T20:06:18;16.70;99.90
46340;DHT22;47273;49.274;8.708;2022-09-09T20:08:46;16.60;99.90
46340;DHT22;47273;49.274;8.708;2022-09-09T20:11:13;16.60;99.90
46340;DHT22;47273;49.274;8.708;2022-09-09T20:13:40;16.70;99.90
46340;DHT22;47273;49.274;8.708;2022-09-09T20:16:15;16.70;99.90
46340;DHT22;47273;49.274;8.708;2022-09-09T20:18:44;16.70;99.90
46340;DHT22;47273;49.274;8.708;2022-09-09T20:21:15;16.60;99.90
46340;DHT22;47273;49.274;8.708;2022-09-09T20:23:42;16.60;99.90
46340;DHT22;47273;49.274;8.708;2022-09-09T20:26:13;16.50;99.90
46340;DHT22;47273;49.274;8.708;2022-09-09T20:28:40;16.50;99.90
